Time;durP1;ratioP1;P1;durP2;ratioP2;P2;SDS_P1;SDS_P2;PMS_P1;PMS_P2;Temp;Humidity;BMP_temperature;BMP_pressure;BME280_temperature;BME280_humidity;BME280_pressure;Samples;Min_cycle;Max_cycle;Signal;HPM_P1;HPM_P2
2024/04/13 00:00:22;;;;;;;1.90;1.37;;;21.70;65.20;;;;;;5317808;27;20458;-96
2024/04/13 00:02:48;;;;;;;1.60;1.10;;;21.70;65.20;;;;;;5318662;27;20530;-95
2024/04/13 00:05:17;;;;;;;1.90;1.23;;;21.70;65.20;;;;;;5319363;27;20442;-96
2024/04/13 00:07:43;;;;;;;1.80;1.20;;;21.70;65.20;;;;;;5319419;27;20549;-94
2024/04/13 00:10:16;;;;;;;1.83;1.20;;;21.70;65.20;;;;;;5320386;27;20431;-95
2024/04/13 00:12:42;;;;;;;1.83;1.30;;;21.70;65.20;;;;;;5319442;27;20785;-96
2024/04/13 00:15:11;;;;;;;1.80;1.20;;;21.70;65.20;;;;;;5318618;27;20544;-96
2024/04/13 00:17:37;;;;;;;1.80;1.30;;;21.80;65.30;;;;;;5318841;27;20313;-96
2024/04/13 00:20:07;;;;;;;1.60;1.07;;;21.80;65.40;;;;;;5319674;27;20958;-96
2024/04/13 00:22:34;;;;;;;1.57;1.00;;;21.70;65.20;;;;;;5317895;27;20242;-95
2024/04/13 00:25:02;;;;;;;1.83;1.30;;;21.70;65.20;;;;;;5317477;27;20530;-93
2024/04/13 00:27:31;;;;;;;1.83;1.33;;;21.70;65.30;;;;;;5318718;27;20564;-95
2024/04/13 00:30:00;;;;;;;1.70;1.30;;;21.80;65.40;;;;;;5317629;27;20450;-96
2024/04/13 00:32:26;;;;;;;1.50;1.10;;;21.70;65.30;;;;;;5317226;27;20514;-96
2024/04/13 00:34:57;;;;;;;1.70;1.27;;;21.80;65.50;;;;;;5318870;27;20443;-96
2024/04/13 00:37:25;;;;;;;1.70;1.10;;;21.70;65.30;;;;;;5319195;27;20455;-96
2024/04/13 00:39:54;;;;;;;1.90;1.40;;;21.70;65.30;;;;;;5318628;27;21021;-94
2024/04/13 00:42:21;;;;;;;1.70;1.10;;;21.80;65.50;;;;;;5318546;27;20447;-96
2024/04/13 00:45:01;;;;;;;1.80;1.50;;;21.80;65.50;;;;;;5319294;27;20454;-96
2024/04/13 00:47:27;;;;;;;1.70;1.20;;;21.70;65.40;;;;;;5318333;27;20813;-96
2024/04/13 00:49:57;;;;;;;1.60;1.00;;;21.70;65.40;;;;;;5318357;27;20447;-96
2024/04/13 00:52:24;;;;;;;1.80;1.10;;;21.70;65.40;;;;;;5318498;27;20454;-96
2024/04/13 00:54:55;;;;;;;1.67;1.13;;;21.80;65.50;;;;;;5293913;27;20451;-96
2024/04/13 00:57:21;;;;;;;1.70;1.13;;;21.70;65.30;;;;;;5321609;27;20442;-96
2024/04/13 00:59:53;;;;;;;1.87;1.03;;;21.70;65.30;;;;;;5318675;27;20569;-95
2024/04/13 01:02:19;;;;;;;1.90;1.40;;;21.70;65.40;;;;;;5317437;27;20450;-96
2024/04/13 01:04:50;;;;;;;1.70;1.20;;;21.70;65.40;;;;;;5317262;27;20520;-96
2024/04/13 01:07:17;;;;;;;1.70;1.17;;;21.70;65.40;;;;;;5316786;27;20438;-96
2024/04/13 01:09:45;;;;;;;1.70;1.10;;;21.80;65.50;;;;;;5316246;27;20479;-95
2024/04/13 01:12:11;;;;;;;2.83;1.17;;;21.70;65.30;;;;;;5315875;27;20495;-96
2024/04/13 01:14:41;;;;;;;1.83;1.10;;;21.80;65.50;;;;;;5315819;27;20458;-96
2024/04/13 01:17:09;;;;;;;2.30;1.20;;;21.70;65.40;;;;;;5316071;27;20467;-96
2024/04/13 01:19:38;;;;;;;1.80;1.23;;;21.80;66.40;;;;;;5316422;27;20495;-96
2024/04/13 01:22:05;;;;;;;1.70;1.27;;;21.80;65.50;;;;;;5324634;27;20483;-96
2024/04/13 01:24:40;;;;;;;1.73;1.27;;;21.80;65.50;;;;;;5324795;27;20510;-96
2024/04/13 01:27:08;;;;;;;2.03;1.37;;;21.70;65.30;;;;;;5326701;27;20492;-96
2024/04/13 01:29:36;;;;;;;1.63;1.23;;;21.70;65.40;;;;;;5322330;27;20784;-96
2024/04/13 01:32:03;;;;;;;1.63;1.13;;;21.80;65.50;;;;;;5317684;27;20443;-96
2024/04/13 01:34:32;;;;;;;2.10;1.23;;;21.50;65.20;;;;;;5318026;27;20503;-96
2024/04/13 01:36:58;;;;;;;1.90;1.20;;;21.70;66.20;;;;;;5318087;27;20789;-96
2024/04/13 01:39:26;;;;;;;1.80;1.40;;;21.70;65.40;;;;;;5317542;27;20498;-96
2024/04/13 01:41:54;;;;;;;1.60;1.00;;;21.70;65.40;;;;;;5317238;27;20450;-96
2024/04/13 01:44:23;;;;;;;2.10;1.20;;;21.80;65.60;;;;;;5320478;27;20535;-96
2024/04/13 01:46:49;;;;;;;2.10;1.40;;;21.60;65.30;;;;;;5320472;27;20458;-95
2024/04/13 01:49:18;;;;;;;1.93;1.30;;;21.60;65.30;;;;;;5320447;27;20446;-96
2024/04/13 01:51:44;;;;;;;1.90;1.30;;;21.70;65.40;;;;;;5320854;27;20460;-96
2024/04/13 01:54:12;;;;;;;1.93;1.47;;;21.60;65.40;;;;;;5320262;27;20494;-95
2024/04/13 01:56:38;;;;;;;1.93;1.10;;;21.70;65.50;;;;;;5321229;27;20250;-95
2024/04/13 01:59:09;;;;;;;1.90;1.37;;;21.70;65.40;;;;;;5319688;27;20447;-95
2024/04/13 02:01:35;;;;;;;1.80;1.20;;;21.70;65.40;;;;;;5319277;27;20482;-96
2024/04/13 02:04:05;;;;;;;1.70;1.37;;;21.70;65.50;;;;;;5318617;27;20478;-96
2024/04/13 02:06:30;;;;;;;1.73;1.27;;;21.70;65.50;;;;;;5319844;27;20450;-95
2024/04/13 02:08:59;;;;;;;1.70;1.27;;;21.70;65.40;;;;;;5319637;27;20551;-96
2024/04/13 02:11:25;;;;;;;1.60;1.10;;;21.60;65.40;;;;;;5319766;27;20286;-96
2024/04/13 02:13:54;;;;;;;2.00;1.40;;;21.70;65.40;;;;;;5319658;27;20466;-95
2024/04/13 02:16:29;;;;;;;2.20;1.40;;;21.70;65.50;;;;;;5317936;27;20231;-94
2024/04/13 02:18:58;;;;;;;1.83;1.20;;;21.60;65.40;;;;;;5319146;27;20830;-96
2024/04/13 02:21:24;;;;;;;1.73;1.17;;;21.60;65.40;;;;;;5320710;27;20454;-96
2024/04/13 02:23:53;;;;;;;1.63;1.17;;;21.60;65.30;;;;;;5321758;27;20492;-96
2024/04/13 02:26:50;;;;;;;1.90;1.23;;;21.60;65.40;;;;;;5328147;27;20442;-96
2024/04/13 02:29:19;;;;;;;1.70;1.20;;;21.60;65.40;;;;;;5338251;26;20564;-94
2024/04/13 02:31:47;;;;;;;1.90;1.30;;;21.70;66.30;;;;;;5338340;26;20430;-95
2024/04/13 02:34:16;;;;;;;1.70;1.23;;;21.70;65.50;;;;;;5319748;27;20454;-95
2024/04/13 02:36:42;;;;;;;1.80;1.20;;;21.60;65.40;;;;;;5319289;27;20442;-96
2024/04/13 02:39:13;;;;;;;1.60;1.10;;;21.70;65.40;;;;;;5317703;27;20446;-96
2024/04/13 02:41:40;;;;;;;1.50;0.90;;;21.70;65.40;;;;;;5317035;27;20446;-96
2024/04/13 02:44:09;;;;;;;1.70;1.13;;;21.60;65.30;;;;;;5319001;27;20568;-93
2024/04/13 02:46:35;;;;;;;1.70;1.17;;;21.60;65.40;;;;;;5318097;27;20466;-96
2024/04/13 02:49:06;;;;;;;1.90;1.40;;;21.70;65.50;;;;;;5318338;27;20446;-96
2024/04/13 02:51:32;;;;;;;1.67;1.30;;;21.70;65.40;;;;;;5318163;27;20446;-96
2024/04/13 02:54:00;;;;;;;1.80;1.20;;;21.60;65.30;;;;;;5317589;27;20490;-96
2024/04/13 02:56:26;;;;;;;1.80;1.20;;;21.60;65.40;;;;;;5320908;27;20215;-95
2024/04/13 02:58:54;;;;;;;1.80;1.40;;;21.60;65.30;;;;;;5337996;26;20443;-92
2024/04/13 03:01:20;;;;;;;2.13;1.60;;;21.60;65.30;;;;;;5337851;26;20246;-93
2024/04/13 03:03:49;;;;;;;1.80;1.10;;;21.70;65.40;;;;;;5337966;26;20451;-93
2024/04/13 03:06:17;;;;;;;1.70;1.20;;;21.80;65.50;;;;;;5330662;27;20455;-95
2024/04/13 03:08:48;;;;;;;1.70;1.10;;;21.60;65.30;;;;;;5325473;27;20526;-96
2024/04/13 03:11:14;;;;;;;1.60;1.10;;;21.60;65.30;;;;;;5322275;27;21079;-96
2024/04/13 03:13:45;;;;;;;1.93;1.00;;;21.60;65.30;;;;;;5322899;27;20454;-96
2024/04/13 03:16:12;;;;;;;1.80;1.30;;;21.70;65.40;;;;;;5320886;27;20483;-96
2024/04/13 03:18:43;;;;;;;1.90;1.43;;;21.60;65.30;;;;;;5319149;27;20497;-95
2024/04/13 03:21:10;;;;;;;1.63;0.97;;;21.60;65.30;;;;;;5318135;27;20443;-96
2024/04/13 03:23:43;;;;;;;1.70;1.20;;;21.60;65.30;;;;;;5317455;27;20451;-96
2024/04/13 03:26:09;;;;;;;1.83;1.40;;;21.60;65.40;;;;;;5319017;27;20454;-95
2024/04/13 03:28:37;;;;;;;2.10;1.40;;;21.60;65.40;;;;;;5318173;27;20451;-96
2024/04/13 03:31:04;;;;;;;1.97;1.17;;;21.60;65.30;;;;;;5316980;27;20242;-95
2024/04/13 03:33:33;;;;;;;1.67;1.17;;;21.70;65.50;;;;;;5317572;27;20447;-96
2024/04/13 03:36:03;;;;;;;1.80;1.53;;;21.60;65.40;;;;;;5316855;27;20495;-92
2024/04/13 03:38:32;;;;;;;1.60;1.00;;;21.60;65.40;;;;;;5317055;27;20447;-96
2024/04/13 03:41:28;;;;;;;1.70;1.10;;;21.70;65.60;;;;;;5355111;21;20505;-96
2024/04/13 03:43:54;;;;;;;1.70;1.20;;;21.60;65.40;;;;;;5351583;26;20449;-95
2024/04/13 03:46:48;;;;;;;2.67;1.30;;;21.60;65.50;;;;;;5351918;26;20465;-96
2024/04/13 03:49:14;;;;;;;1.50;1.00;;;21.60;65.50;;;;;;5353984;26;20993;-96
2024/04/13 03:51:43;;;;;;;2.53;1.40;;;21.60;65.50;;;;;;5353642;26;20446;-94
2024/04/13 03:54:09;;;;;;;1.70;1.10;;;21.60;65.50;;;;;;5352267;26;20215;-96
2024/04/13 03:56:40;;;;;;;1.90;1.30;;;21.60;65.50;;;;;;5352398;26;20515;-96
2024/04/13 03:59:06;;;;;;;1.50;0.97;;;21.60;65.50;;;;;;5358663;26;20549;-96
2024/04/13 04:01:35;;;;;;;1.87;1.20;;;21.60;65.50;;;;;;5353889;26;20465;-95
2024/04/13 04:04:01;;;;;;;1.73;1.23;;;21.70;65.60;;;;;;5351246;26;20227;-95
2024/04/13 04:06:29;;;;;;;1.73;1.33;;;21.50;65.30;;;;;;5351325;26;20501;-93
2024/04/13 04:08:55;;;;;;;1.60;1.20;;;21.60;65.40;;;;;;5385636;26;20496;-96
2024/04/13 04:11:24;;;;;;;1.60;1.10;;;21.70;65.50;;;;;;5386583;26;20456;-94
2024/04/13 04:13:52;;;;;;;1.83;1.30;;;21.70;65.50;;;;;;5387476;26;20229;-92
2024/04/13 04:17:00;;;;;;;1.60;1.10;;;21.60;65.50;;;;;;5386640;26;20536;-94
2024/04/13 04:19:28;;;;;;;1.60;1.00;;;21.60;65.50;;;;;;5389399;26;20481;-94
2024/04/13 04:21:56;;;;;;;2.70;1.07;;;21.60;65.50;;;;;;5388107;26;21022;-96
2024/04/13 04:24:22;;;;;;;1.93;1.27;;;21.60;65.50;;;;;;5385628;26;20504;-93
2024/04/13 04:26:51;;;;;;;1.97;1.27;;;21.70;65.60;;;;;;5387689;26;20448;-95
2024/04/13 04:29:20;;;;;;;1.90;1.40;;;21.60;65.50;;;;;;5387823;26;20778;-95
2024/04/13 04:31:48;;;;;;;1.60;1.10;;;21.70;65.60;;;;;;5387239;26;20768;-96
2024/04/13 04:34:15;;;;;;;1.80;1.23;;;21.60;65.50;;;;;;5385353;26;20452;-93
2024/04/13 04:36:44;;;;;;;2.00;1.20;;;21.60;65.50;;;;;;5385884;26;21006;-95
2024/04/13 04:39:10;;;;;;;1.80;1.20;;;21.60;65.50;;;;;;5385538;26;20814;-96
2024/04/13 04:41:38;;;;;;;1.60;1.00;;;21.60;65.50;;;;;;5386381;26;20498;-96
2024/04/13 04:44:05;;;;;;;1.80;1.23;;;21.60;65.50;;;;;;5385680;26;20459;-96
2024/04/13 04:46:36;;;;;;;1.80;1.07;;;21.60;65.40;;;;;;5385670;26;20798;-94
2024/04/13 04:49:04;;;;;;;1.77;1.10;;;21.70;65.60;;;;;;5385879;26;20487;-96
2024/04/13 04:51:32;;;;;;;1.70;1.10;;;21.60;65.50;;;;;;5385819;26;20849;-94
2024/04/13 04:54:01;;;;;;;1.90;1.20;;;21.60;65.50;;;;;;5386169;26;20557;-95
2024/04/13 04:56:27;;;;;;;1.57;1.13;;;21.60;65.40;;;;;;5386286;26;20448;-96
2024/04/13 04:58:56;;;;;;;1.90;1.30;;;21.60;65.40;;;;;;5386003;26;20974;-95
2024/04/13 05:01:22;;;;;;;1.93;1.40;;;21.60;65.50;;;;;;5385249;26;20551;-96
2024/04/13 05:03:53;;;;;;;1.60;1.10;;;21.60;65.50;;;;;;5385811;26;20467;-94
2024/04/13 05:06:19;;;;;;;2.00;1.40;;;21.60;65.50;;;;;;5385359;26;20518;-95
2024/04/13 05:08:47;;;;;;;2.57;1.30;;;21.60;65.50;;;;;;5385631;26;20451;-96
2024/04/13 05:11:14;;;;;;;1.70;1.30;;;21.60;65.50;;;;;;5385132;26;20495;-96
2024/04/13 05:13:42;;;;;;;2.10;1.37;;;21.60;65.50;;;;;;5385546;26;20444;-92
2024/04/13 05:16:09;;;;;;;1.77;1.20;;;21.60;65.60;;;;;;5386253;26;20472;-96
2024/04/13 05:18:37;;;;;;;1.70;1.20;;;21.60;65.60;;;;;;5385937;26;20528;-96
2024/04/13 05:21:06;;;;;;;2.00;1.40;;;21.60;65.50;;;;;;5386092;26;20452;-96
2024/04/13 05:23:34;;;;;;;1.60;1.20;;;21.60;65.50;;;;;;5387818;26;20440;-95
2024/04/13 05:26:01;;;;;;;1.67;1.10;;;21.60;65.60;;;;;;5388993;26;20451;-95
2024/04/13 05:28:29;;;;;;;1.60;1.30;;;21.70;65.60;;;;;;5391377;26;20503;-96
2024/04/13 05:30:55;;;;;;;1.80;1.13;;;21.70;65.60;;;;;;5399659;26;20440;-93
2024/04/13 05:33:24;;;;;;;2.87;1.33;;;21.60;65.60;;;;;;5405599;26;20432;-91
2024/04/13 05:35:50;;;;;;;1.73;1.10;;;21.60;65.60;;;;;;5403132;26;20447;-95
2024/04/13 05:38:22;;;;;;;1.70;1.20;;;21.70;65.70;;;;;;5384579;26;20444;-96
2024/04/13 05:40:49;;;;;;;1.63;1.23;;;21.60;65.60;;;;;;5384979;26;20229;-96
2024/04/13 05:43:19;;;;;;;1.90;1.23;;;21.70;65.70;;;;;;5384945;26;20480;-94
2024/04/13 05:45:45;;;;;;;1.60;1.00;;;21.60;65.60;;;;;;5384789;26;20900;-95
2024/04/13 05:48:14;;;;;;;1.50;0.93;;;21.60;65.60;;;;;;5384977;26;20468;-95
2024/04/13 05:50:40;;;;;;;1.67;1.27;;;21.60;65.60;;;;;;5385163;26;20547;-94
2024/04/13 05:53:08;;;;;;;2.10;1.40;;;21.60;65.60;;;;;;5384801;26;20495;-94
2024/04/13 05:55:39;;;;;;;2.33;1.27;;;21.60;65.60;;;;;;5385065;26;20221;-95
2024/04/13 05:58:08;;;;;;;1.70;1.20;;;21.60;65.60;;;;;;5384740;26;20553;-92
2024/04/13 06:00:33;;;;;;;1.57;0.90;;;21.60;65.60;;;;;;5384734;26;20439;-96
2024/04/13 06:03:02;;;;;;;1.90;1.40;;;21.60;65.60;;;;;;5384805;26;20452;-94
2024/04/13 06:05:28;;;;;;;1.73;1.20;;;21.60;65.60;;;;;;5384698;26;20307;-95
2024/04/13 06:07:57;;;;;;;2.23;1.20;;;21.60;65.60;;;;;;5386378;26;20459;-96
2024/04/13 06:10:23;;;;;;;4.47;1.30;;;21.60;65.60;;;;;;5387011;26;20440;-96
2024/04/13 06:12:55;;;;;;;1.90;1.10;;;21.60;65.60;;;;;;5387092;26;20494;-96
2024/04/13 06:15:21;;;;;;;1.70;1.20;;;21.60;65.60;;;;;;5386850;26;20436;-96
2024/04/13 06:17:52;;;;;;;1.50;1.00;;;21.60;65.60;;;;;;5389650;26;20484;-96
2024/04/13 06:20:18;;;;;;;1.90;1.37;;;21.70;65.70;;;;;;5386680;26;20448;-95
2024/04/13 06:22:50;;;;;;;1.90;1.20;;;21.60;65.50;;;;;;5386809;26;20455;-95
2024/04/13 06:25:17;;;;;;;1.90;1.10;;;21.60;65.60;;;;;;5388031;26;20275;-96
2024/04/13 06:27:45;;;;;;;1.83;1.23;;;21.60;65.60;;;;;;5387485;26;20451;-96
2024/04/13 06:30:14;;;;;;;2.10;1.30;;;21.70;65.70;;;;;;5387961;26;20456;-96
2024/04/13 06:32:42;;;;;;;2.20;1.30;;;21.60;65.60;;;;;;5389945;26;20471;-95
2024/04/13 06:35:09;;;;;;;2.33;1.30;;;21.70;65.70;;;;;;5388219;26;20962;-96
2024/04/13 06:37:38;;;;;;;1.80;1.30;;;21.70;65.70;;;;;;5387808;26;20448;-93
2024/04/13 06:40:04;;;;;;;1.70;1.20;;;21.60;65.60;;;;;;5387681;26;20548;-96
2024/04/13 06:42:33;;;;;;;2.20;1.30;;;21.60;65.60;;;;;;5391004;26;20485;-96
2024/04/13 06:45:00;;;;;;;2.10;1.50;;;21.60;65.60;;;;;;5390672;26;20440;-94
2024/04/13 06:47:31;;;;;;;1.60;1.10;;;21.60;65.70;;;;;;5389768;26;20576;-96
2024/04/13 06:49:57;;;;;;;2.37;1.40;;;21.60;65.60;;;;;;5390277;26;20447;-96
2024/04/13 06:52:26;;;;;;;1.70;1.20;;;21.60;65.60;;;;;;5390286;26;20448;-96
2024/04/13 06:54:51;;;;;;;2.13;1.30;;;21.70;65.60;;;;;;5390367;26;20214;-96
2024/04/13 06:57:20;;;;;;;2.00;1.10;;;21.60;65.50;;;;;;5389759;26;20558;-96
2024/04/13 06:59:46;;;;;;;1.90;1.20;;;21.70;65.70;;;;;;5387519;26;20240;-96
2024/04/13 07:02:14;;;;;;;1.87;1.33;;;21.60;65.50;;;;;;5389568;26;20460;-96
2024/04/13 07:04:43;;;;;;;1.70;1.10;;;21.70;65.60;;;;;;5391849;26;20225;-93
2024/04/13 07:07:12;;;;;;;2.00;1.03;;;21.60;65.50;;;;;;5391161;26;20456;-96
2024/04/13 07:09:37;;;;;;;1.73;1.17;;;21.60;65.50;;;;;;5387490;26;20503;-95
2024/04/13 07:12:08;;;;;;;1.90;1.40;;;21.60;65.40;;;;;;5387620;26;20443;-96
2024/04/13 07:14:34;;;;;;;1.80;1.20;;;21.60;65.50;;;;;;5387174;26;20209;-94
2024/04/13 07:17:03;;;;;;;1.90;1.30;;;21.70;65.50;;;;;;5389085;26;20504;-95
2024/04/13 07:19:29;;;;;;;1.60;1.10;;;21.60;65.40;;;;;;5387221;26;20553;-96
2024/04/13 07:22:00;;;;;;;1.80;1.00;;;21.60;65.30;;;;;;5387997;26;20451;-96
2024/04/13 07:24:28;;;;;;;1.70;1.20;;;21.60;65.30;;;;;;5387328;26;21025;-93
2024/04/13 07:26:57;;;;;;;1.70;1.20;;;21.70;65.40;;;;;;5387811;26;20452;-96
2024/04/13 07:29:25;;;;;;;1.60;1.00;;;21.60;65.20;;;;;;5387044;26;21087;-96
2024/04/13 07:31:51;;;;;;;1.90;1.40;;;21.70;65.40;;;;;;5386775;26;20448;-94
2024/04/13 07:34:20;;;;;;;1.60;1.30;;;21.60;65.20;;;;;;5386948;26;20504;-96
2024/04/13 07:36:46;;;;;;;1.90;1.17;;;21.70;65.30;;;;;;5386616;26;20962;-96
2024/04/13 07:39:17;;;;;;;1.67;1.00;;;21.60;65.20;;;;;;5386650;26;20560;-96
2024/04/13 07:41:43;;;;;;;1.60;1.13;;;21.60;65.20;;;;;;5385711;26;20492;-96
2024/04/13 07:44:13;;;;;;;2.00;1.30;;;21.60;65.20;;;;;;5386311;26;20444;-96
2024/04/13 07:46:39;;;;;;;1.83;1.13;;;21.60;65.20;;;;;;5386415;26;20456;-94
2024/04/13 07:49:08;;;;;;;1.57;1.07;;;21.60;65.10;;;;;;5386300;26;20515;-96
2024/04/13 07:51:33;;;;;;;1.80;1.23;;;21.60;65.10;;;;;;5386440;26;20440;-94
2024/04/13 07:54:02;;;;;;;2.03;1.40;;;21.60;65.10;;;;;;5386075;26;20444;-94
2024/04/13 07:56:31;;;;;;;1.90;1.40;;;21.60;65.10;;;;;;5404247;26;20276;-93
2024/04/13 07:58:59;;;;;;;1.80;1.27;;;21.70;65.20;;;;;;5406997;26;20424;-93
2024/04/13 08:01:25;;;;;;;1.80;1.20;;;21.60;65.00;;;;;;5406927;26;20470;-93
2024/04/13 08:03:54;;;;;;;1.77;1.23;;;21.60;65.00;;;;;;5395787;26;20443;-95
2024/04/13 08:06:22;;;;;;;1.70;0.97;;;21.70;65.10;;;;;;5389733;26;20487;-92
2024/04/13 08:08:56;;;;;;;1.80;1.13;;;21.70;65.00;;;;;;5396130;26;20502;-95
2024/04/13 08:11:22;;;;;;;2.00;1.23;;;21.60;65.40;;;;;;5387125;26;20444;-95
2024/04/13 08:13:53;;;;;;;1.80;1.20;;;21.60;65.70;;;;;;5386797;26;20508;-95
2024/04/13 08:16:19;;;;;;;1.90;1.40;;;21.60;65.40;;;;;;5387387;26;20464;-96
2024/04/13 08:18:50;;;;;;;1.57;1.10;;;21.70;65.20;;;;;;5385920;26;20487;-96
2024/04/13 08:21:17;;;;;;;1.70;1.00;;;21.60;65.00;;;;;;5387003;26;20448;-96
2024/04/13 08:23:45;;;;;;;1.70;1.30;;;21.60;65.00;;;;;;5387427;26;20448;-94
2024/04/13 08:26:11;;;;;;;2.37;1.30;;;21.80;65.60;;;;;;5389769;26;20444;-96
2024/04/13 08:28:42;;;;;;;1.90;1.20;;;21.60;65.50;;;;;;5384095;26;20513;-90
2024/04/13 08:31:10;;;;;;;1.80;1.20;;;21.70;65.30;;;;;;5392451;26;20479;-89
2024/04/13 08:33:39;;;;;;;1.90;1.40;;;21.70;65.40;;;;;;5406426;26;20448;-89
2024/04/13 08:36:08;;;;;;;2.23;1.13;;;21.80;65.80;;;;;;5399932;26;20443;-90
2024/04/13 08:38:36;;;;;;;2.00;1.40;;;21.70;65.50;;;;;;5383510;26;20451;-89
2024/04/13 08:41:06;;;;;;;1.67;1.13;;;21.70;65.80;;;;;;5383297;26;20576;-90
2024/04/13 08:43:35;;;;;;;2.47;1.13;;;21.60;65.70;;;;;;5383151;26;20440;-90
2024/04/13 08:46:04;;;;;;;2.43;1.20;;;21.70;65.60;;;;;;5383003;26;20527;-89
2024/04/13 08:48:36;;;;;;;1.80;1.10;;;21.70;65.60;;;;;;5383731;26;20491;-90
2024/04/13 08:51:03;;;;;;;1.80;1.43;;;21.70;65.70;;;;;;5383336;26;20478;-90
2024/04/13 08:53:34;;;;;;;1.70;1.10;;;21.70;65.50;;;;;;5382680;26;20487;-91
2024/04/13 08:56:02;;;;;;;2.20;1.23;;;21.70;65.70;;;;;;5384991;26;20444;-90
2024/04/13 08:58:33;;;;;;;1.70;1.20;;;21.80;65.90;;;;;;5383525;26;20460;-93
2024/04/13 09:01:00;;;;;;;1.57;1.07;;;21.70;66.00;;;;;;5384641;26;20467;-90
2024/04/13 09:03:30;;;;;;;3.10;1.40;;;21.70;65.70;;;;;;5384318;26;20452;-90
2024/04/13 09:05:59;;;;;;;1.97;1.17;;;21.70;65.90;;;;;;5384144;26;20891;-91
2024/04/13 09:08:30;;;;;;;2.73;1.17;;;21.80;65.80;;;;;;5383252;26;20498;-91
2024/04/13 09:10:59;;;;;;;1.70;1.00;;;21.70;65.80;;;;;;5383461;26;20489;-91
2024/04/13 09:13:30;;;;;;;1.53;1.10;;;21.70;65.80;;;;;;5383262;26;20452;-91
2024/04/13 09:15:56;;;;;;;2.33;1.33;;;21.80;65.90;;;;;;5383240;26;20464;-92
2024/04/13 09:18:25;;;;;;;2.23;1.30;;;21.70;65.70;;;;;;5383821;26;21022;-92
2024/04/13 09:20:52;;;;;;;1.60;1.10;;;21.70;65.80;;;;;;5383751;26;20455;-93
2024/04/13 09:23:26;;;;;;;2.67;1.07;;;21.70;65.80;;;;;;5383860;26;21056;-92
2024/04/13 09:26:00;;;;;;;1.70;1.10;;;21.70;65.80;;;;;;5385950;26;20456;-91
2024/04/13 09:28:39;;;;;;;1.90;1.20;;;21.80;66.00;;;;;;5388251;26;20463;-92
2024/04/13 09:31:05;;;;;;;1.80;1.13;;;21.80;65.90;;;;;;5384768;26;20635;-92
2024/04/13 09:33:35;;;;;;;1.70;1.17;;;21.70;65.80;;;;;;5383052;26;20455;-92
2024/04/13 09:36:02;;;;;;;1.70;1.13;;;21.80;66.00;;;;;;5382714;26;20447;-92
2024/04/13 09:38:33;;;;;;;1.73;1.13;;;21.70;65.90;;;;;;5382508;26;20455;-92
2024/04/13 09:41:00;;;;;;;2.17;1.33;;;21.70;65.90;;;;;;5382146;26;20464;-92
2024/04/13 09:43:29;;;;;;;2.40;1.20;;;21.80;66.00;;;;;;5381939;26;20436;-91
2024/04/13 09:45:56;;;;;;;1.60;1.03;;;21.70;65.90;;;;;;5382415;26;20523;-92
2024/04/13 09:48:25;;;;;;;1.60;1.00;;;21.70;65.90;;;;;;5382040;26;20455;-91
2024/04/13 09:50:50;;;;;;;2.00;1.40;;;21.80;66.10;;;;;;5382460;26;20836;-92
2024/04/13 09:53:20;;;;;;;3.30;1.40;;;21.70;65.90;;;;;;5382645;26;20455;-91
2024/04/13 09:55:48;;;;;;;2.40;1.30;;;21.70;65.90;;;;;;5382214;26;20452;-91
2024/04/13 09:58:18;;;;;;;2.00;1.27;;;21.70;66.00;;;;;;5382011;26;20463;-91
2024/04/13 10:00:46;;;;;;;1.50;1.00;;;21.80;66.20;;;;;;5386332;26;20447;-91
2024/04/13 10:03:14;;;;;;;1.60;1.13;;;21.90;66.30;;;;;;5382956;26;20440;-91
2024/04/13 10:05:43;;;;;;;1.60;0.97;;;21.80;66.10;;;;;;5385747;26;20451;-91
2024/04/13 10:08:12;;;;;;;2.00;1.53;;;21.80;66.20;;;;;;5518745;21;20566;-91
2024/04/13 10:10:42;;;;;;;1.50;1.00;;;21.80;66.20;;;;;;5385735;26;20471;-91
2024/04/13 10:13:17;;;;;;;2.37;1.10;;;21.80;66.10;;;;;;5385488;26;20455;-91
2024/04/13 10:15:44;;;;;;;2.13;1.20;;;21.80;66.30;;;;;;5385689;26;20518;-90
2024/04/13 10:18:14;;;;;;;2.10;1.40;;;21.80;66.20;;;;;;5389180;26;21069;-90
2024/04/13 10:20:40;;;;;;;1.93;1.00;;;21.80;66.30;;;;;;5388377;26;20451;-90
2024/04/13 10:23:12;;;;;;;1.60;1.00;;;21.80;66.30;;;;;;5385303;26;20456;-91
2024/04/13 10:25:37;;;;;;;1.90;1.20;;;21.80;66.20;;;;;;5385931;26;21030;-90
2024/04/13 10:28:07;;;;;;;1.80;1.30;;;21.80;66.30;;;;;;5385178;26;20451;-92
2024/04/13 10:30:48;;;;;;;2.27;1.50;;;21.80;66.50;;;;;;5385429;26;20214;-93
2024/04/13 10:33:23;;;;;;;2.83;1.23;;;21.80;66.30;;;;;;5385570;26;20451;-92
2024/04/13 10:35:54;;;;;;;2.27;1.20;;;21.80;66.30;;;;;;5385431;26;20447;-90
2024/04/13 10:38:22;;;;;;;1.67;1.20;;;21.80;66.30;;;;;;5385277;26;20507;-91
2024/04/13 10:40:48;;;;;;;2.80;1.40;;;21.80;66.30;;;;;;5385237;26;20460;-90
2024/04/13 10:43:19;;;;;;;2.03;1.20;;;21.90;66.40;;;;;;5385105;26;20565;-90
2024/04/13 10:45:53;;;;;;;1.80;1.30;;;21.80;66.30;;;;;;5385388;26;20275;-90
2024/04/13 10:48:23;;;;;;;1.60;1.00;;;21.80;66.40;;;;;;5385769;26;20467;-91
2024/04/13 10:50:50;;;;;;;2.07;1.37;;;21.80;66.30;;;;;;5385060;26;20565;-91
2024/04/13 10:53:19;;;;;;;1.73;1.10;;;21.80;66.50;;;;;;5385126;26;20557;-91
2024/04/13 10:55:46;;;;;;;1.83;1.17;;;21.90;66.50;;;;;;5384828;26;20562;-91
2024/04/13 10:58:15;;;;;;;1.70;1.10;;;21.80;66.40;;;;;;5385616;26;20533;-90
2024/04/13 11:00:44;;;;;;;1.70;1.20;;;21.80;66.40;;;;;;5385389;26;20579;-93
2024/04/13 11:03:15;;;;;;;1.70;1.20;;;21.90;66.50;;;;;;5385082;26;20558;-91
2024/04/13 11:05:43;;;;;;;2.30;1.20;;;21.80;66.30;;;;;;5385540;26;20452;-92
2024/04/13 11:08:12;;;;;;;1.60;1.10;;;21.90;66.50;;;;;;5385267;26;20460;-92
2024/04/13 11:10:39;;;;;;;7.40;1.40;;;21.80;66.50;;;;;;5385157;26;20472;-92
2024/04/13 11:13:08;;;;;;;1.60;1.07;;;21.80;66.40;;;;;;5384465;26;20476;-91
2024/04/13 11:15:34;;;;;;;1.67;1.10;;;21.80;66.60;;;;;;5384409;26;20489;-91
2024/04/13 11:18:03;;;;;;;1.70;1.17;;;21.80;66.60;;;;;;5384766;26;20838;-93
2024/04/13 11:20:33;;;;;;;1.97;1.30;;;21.80;66.50;;;;;;5385077;26;20302;-92
2024/04/13 11:23:02;;;;;;;1.60;1.10;;;21.80;66.50;;;;;;5385061;26;20448;-92
2024/04/13 11:25:28;;;;;;;1.83;1.10;;;21.80;66.50;;;;;;5386454;26;20562;-92
2024/04/13 11:27:58;;;;;;;1.70;1.13;;;21.80;66.60;;;;;;5385861;26;20459;-91
2024/04/13 11:30:24;;;;;;;1.80;1.17;;;21.80;66.50;;;;;;5385208;26;20248;-92
2024/04/13 11:32:54;;;;;;;2.00;1.00;;;21.80;66.50;;;;;;5385409;26;20560;-91
2024/04/13 11:35:20;;;;;;;1.90;1.40;;;21.80;66.50;;;;;;5385128;26;20519;-91
2024/04/13 11:38:01;;;;;;;1.60;1.00;;;21.90;66.70;;;;;;5398443;26;20436;-92
2024/04/13 11:40:29;;;;;;;2.33;1.37;;;21.80;66.60;;;;;;5407365;26;20485;-89
2024/04/13 11:42:58;;;;;;;2.27;1.10;;;21.80;66.60;;;;;;5394680;26;20486;-91
2024/04/13 11:45:24;;;;;;;1.50;1.00;;;21.80;66.60;;;;;;5384388;26;20476;-91
2024/04/13 11:47:52;;;;;;;1.90;1.20;;;21.90;67.50;;;;;;5384778;26;20503;-91
2024/04/13 11:50:19;;;;;;;1.70;1.20;;;21.80;66.60;;;;;;5384175;26;20774;-91
2024/04/13 11:52:48;;;;;;;3.80;1.20;;;21.90;67.50;;;;;;5384206;26;20571;-91
2024/04/13 11:55:20;;;;;;;1.70;1.20;;;21.80;66.50;;;;;;5384093;26;20564;-91
2024/04/13 11:57:49;;;;;;;1.50;1.00;;;21.90;66.60;;;;;;5384160;26;20560;-91
2024/04/13 12:00:16;;;;;;;1.70;1.30;;;21.90;66.70;;;;;;5384014;26;20459;-91
2024/04/13 12:02:46;;;;;;;2.00;1.20;;;21.80;66.60;;;;;;5384520;26;20452;-92
2024/04/13 12:05:12;;;;;;;1.57;0.93;;;21.80;66.50;;;;;;5384229;26;20543;-91
2024/04/13 12:07:40;;;;;;;1.70;1.10;;;21.90;66.70;;;;;;5384727;26;20487;-91
2024/04/13 12:10:07;;;;;;;1.70;1.20;;;21.90;66.70;;;;;;5384037;26;20577;-92
2024/04/13 12:12:38;;;;;;;2.63;1.20;;;21.90;66.60;;;;;;5383914;26;20455;-91
2024/04/13 12:15:05;;;;;;;1.70;1.10;;;22.00;66.80;;;;;;5383918;26;20586;-92
2024/04/13 12:17:33;;;;;;;2.03;1.10;;;21.90;66.70;;;;;;5383733;26;20494;-92
2024/04/13 12:20:00;;;;;;;2.00;1.13;;;21.90;66.70;;;;;;5383809;26;20515;-91
2024/04/13 12:22:29;;;;;;;1.60;1.10;;;21.90;66.70;;;;;;5383446;26;20451;-91
2024/04/13 12:24:55;;;;;;;1.60;1.07;;;21.90;66.60;;;;;;5383619;26;20578;-91
2024/04/13 12:27:23;;;;;;;2.67;1.30;;;21.90;66.80;;;;;;5383589;26;20467;-92
2024/04/13 12:29:52;;;;;;;1.70;1.20;;;21.90;66.70;;;;;;5383448;26;20222;-91
2024/04/13 12:32:20;;;;;;;1.70;1.40;;;21.90;66.80;;;;;;5384010;26;20496;-92
2024/04/13 12:34:47;;;;;;;1.97;1.20;;;22.00;66.90;;;;;;5383373;26;20448;-91
2024/04/13 12:37:15;;;;;;;2.00;1.20;;;21.90;66.80;;;;;;5383708;26;20790;-91
2024/04/13 12:39:42;;;;;;;1.90;1.30;;;21.90;66.80;;;;;;5383402;26;20451;-91
2024/04/13 12:42:11;;;;;;;2.20;1.10;;;21.90;66.90;;;;;;5383564;26;20444;-90
2024/04/13 12:44:40;;;;;;;1.83;1.20;;;21.90;66.80;;;;;;5383546;26;20519;-94
2024/04/13 12:47:09;;;;;;;1.60;1.20;;;21.90;66.90;;;;;;5385635;26;20511;-91
2024/04/13 12:49:37;;;;;;;1.70;1.20;;;21.90;66.80;;;;;;5396595;26;20511;-91
2024/04/13 12:52:04;;;;;;;1.70;1.20;;;21.90;66.90;;;;;;5392032;26;20796;-90
2024/04/13 12:54:32;;;;;;;1.70;1.20;;;21.90;66.90;;;;;;5393191;26;20460;-89